createdAt,value
2023-03-13T00:02:39.399Z,55.90
2023-03-13T00:07:41.545Z,56.10
2023-03-13T00:12:43.792Z,55.80
2023-03-13T00:17:46.044Z,56.10
2023-03-13T00:22:48.289Z,55.80
2023-03-13T00:27:50.570Z,55.90
2023-03-13T00:32:52.812Z,55.70
2023-03-13T00:37:55.108Z,55.80
2023-03-13T00:42:57.632Z,55.70
2023-03-13T00:47:59.813Z,55.70
2023-03-13T00:53:02.005Z,55.40
2023-03-13T00:58:04.171Z,55.60
2023-03-13T01:03:06.528Z,55.50
2023-03-13T01:08:08.828Z,55.40
2023-03-13T01:13:11.707Z,55.30
2023-03-13T01:18:15.480Z,55.20
2023-03-13T01:23:17.697Z,55.10
2023-03-13T01:28:19.992Z,55.00
2023-03-13T01:33:23.649Z,55.00
2023-03-13T01:38:25.832Z,54.80
2023-03-13T01:43:30.517Z,54.90
2023-03-13T01:48:56.711Z,54.60
2023-03-13T01:54:38.093Z,54.70
2023-03-13T01:59:47.345Z,54.90
2023-03-13T02:04:55.729Z,54.90
2023-03-13T02:09:58.486Z,54.80
2023-03-13T02:15:05.823Z,54.70
2023-03-13T02:20:09.546Z,54.60
2023-03-13T02:30:25.291Z,54.70
2023-03-13T02:35:28.294Z,54.60
2023-03-13T02:40:37.368Z,54.50
2023-03-13T02:45:39.969Z,54.50
2023-03-13T02:50:43.225Z,54.60
2023-03-13T02:55:45.820Z,54.50
2023-03-13T03:00:48.360Z,54.50
2023-03-13T03:05:52.321Z,54.30
2023-03-13T03:10:54.785Z,54.40
2023-03-13T03:15:58.333Z,54.40
2023-03-13T03:21:00.546Z,54.20
2023-03-13T03:26:04.841Z,54.40
2023-03-13T03:31:10.226Z,54.30
2023-03-13T03:36:16.697Z,54.30
2023-03-13T03:41:20.814Z,54.30
2023-03-13T03:46:23.273Z,54.20
2023-03-13T03:51:25.697Z,54.30
2023-03-13T03:56:28.075Z,54.10
2023-03-13T04:01:32.442Z,54.30
2023-03-13T04:06:34.972Z,54.20
2023-03-13T04:11:39.580Z,54.30
2023-03-13T04:16:44.312Z,54.30
2023-03-13T04:21:48.123Z,54.30
2023-03-13T04:26:53.493Z,54.40
2023-03-13T04:31:56.334Z,54.40
2023-03-13T04:37:08.702Z,54.30
2023-03-13T04:42:20.494Z,54.20
2023-03-13T04:47:32.032Z,54.40
2023-03-13T04:52:44.442Z,54.30
2023-03-13T04:57:56.419Z,54.50
2023-03-13T05:03:24.449Z,54.40
2023-03-13T05:08:46.498Z,54.50
2023-03-13T05:14:11.175Z,54.50
2023-03-13T05:19:25.054Z,54.50
2023-03-13T05:24:42.076Z,54.50
2023-03-13T05:29:56.330Z,54.50
2023-03-13T05:35:18.799Z,54.40
2023-03-13T05:40:37.320Z,54.70
2023-03-13T05:45:59.449Z,53.10
2023-03-13T05:51:12.967Z,53.10
2023-03-13T05:56:28.028Z,52.60
2023-03-13T06:01:47.447Z,54.10
2023-03-13T06:06:59.971Z,54.50
2023-03-13T06:12:03.906Z,53.40
2023-03-13T06:17:06.961Z,52.90
2023-03-13T06:22:09.407Z,53.60
2023-03-13T07:54:50.386Z,44.30
2023-03-13T07:59:54.052Z,42.80
2023-03-13T08:04:58.788Z,47.70
2023-03-13T08:10:01.182Z,39.30
2023-03-13T08:15:03.721Z,38.60
2023-03-13T08:20:07.963Z,38.80
2023-03-13T08:25:10.392Z,38.10
2023-03-13T08:30:13.162Z,38.60
2023-03-13T08:35:15.457Z,37.90
2023-03-13T08:40:17.867Z,38.60
2023-03-13T08:45:20.120Z,39.40
2023-03-13T08:50:22.387Z,39.50
2023-03-13T08:55:26.264Z,37.00
2023-03-13T09:00:28.859Z,38.10
2023-03-13T09:05:31.044Z,39.30
2023-03-13T09:10:33.865Z,37.90
2023-03-13T09:15:36.260Z,38.30
2023-03-13T09:20:38.735Z,39.70
2023-03-13T09:25:42.040Z,40.00
2023-03-13T09:30:44.368Z,40.60
2023-03-13T09:35:51.048Z,40.90
2023-03-13T09:41:05.721Z,41.70
2023-03-13T09:46:18.390Z,42.00
2023-03-13T09:51:44.178Z,43.60
2023-03-13T09:56:53.925Z,44.10
2023-03-13T10:01:59.170Z,45.60
2023-03-13T10:07:03.022Z,44.70
2023-03-13T10:12:27.386Z,45.70
2023-03-13T10:22:42.093Z,46.00
2023-03-13T10:27:50.806Z,47.60
2023-03-13T10:38:24.628Z,48.00
2023-03-13T10:43:29.658Z,48.70
2023-03-13T10:48:42.252Z,49.30
2023-03-13T10:53:44.634Z,49.90
2023-03-13T10:58:50.045Z,50.70
2023-03-13T11:03:54.782Z,50.30
2023-03-13T11:14:16.929Z,50.80
2023-03-13T11:35:53.431Z,50.20
2023-03-13T11:41:05.806Z,50.70
2023-03-13T11:46:23.516Z,51.20
2023-03-13T12:02:00.256Z,51.70
2023-03-13T12:07:26.298Z,51.30
2023-03-13T12:17:43.429Z,51.00
2023-03-13T12:22:55.060Z,52.00
2023-03-13T12:28:15.696Z,52.60
2023-03-13T12:38:37.274Z,52.30
2023-03-13T12:43:42.890Z,52.40
2023-03-13T12:49:12.433Z,52.20
2023-03-13T12:59:44.288Z,53.30
2023-03-13T13:04:49.651Z,53.80
2023-03-13T13:15:27.885Z,53.30
2023-03-13T13:25:39.936Z,53.40
2023-03-13T13:30:42.277Z,53.50
2023-03-13T13:35:45.905Z,53.00
2023-03-13T13:46:36.123Z,52.80
2023-03-13T13:51:39.985Z,52.00
2023-03-13T13:56:56.607Z,52.00
2023-03-13T14:07:30.254Z,51.80
2023-03-13T14:12:38.366Z,51.20
2023-03-13T14:17:45.496Z,51.20
2023-03-13T14:22:49.197Z,51.10
2023-03-13T14:27:52.592Z,51.10
2023-03-13T14:32:55.019Z,51.10
2023-03-13T14:38:02.757Z,51.00
2023-03-13T14:43:05.226Z,50.80
2023-03-13T14:48:31.790Z,51.30
2023-03-13T14:53:34.888Z,51.80
2023-03-13T14:58:37.416Z,51.20
2023-03-13T15:03:46.334Z,51.20
2023-03-13T15:09:09.899Z,51.00
2023-03-13T15:14:33.664Z,51.40
2023-03-13T15:19:35.871Z,51.70
2023-03-13T15:24:38.065Z,52.20
2023-03-13T15:29:40.294Z,51.70
2023-03-13T15:34:42.536Z,51.80
2023-03-13T15:39:45.662Z,51.70
2023-03-13T15:44:47.938Z,52.10
2023-03-13T15:49:50.236Z,51.90
2023-03-13T15:54:52.539Z,51.90
2023-03-13T15:59:55.080Z,52.10
2023-03-13T16:04:57.619Z,52.00
2023-03-13T16:10:00.085Z,52.10
2023-03-13T16:15:02.322Z,52.50
2023-03-13T16:20:11.833Z,52.30
2023-03-13T16:25:15.594Z,52.30
2023-03-13T16:30:24.742Z,52.50
2023-03-13T16:35:28.661Z,52.60
2023-03-13T16:40:33.477Z,52.80
2023-03-13T16:45:35.653Z,52.90
2023-03-13T16:50:38.682Z,53.00
2023-03-13T16:55:40.966Z,53.40
2023-03-13T17:00:45.509Z,53.70
2023-03-13T17:05:52.969Z,54.10
2023-03-13T17:10:55.196Z,54.60
2023-03-13T17:15:57.615Z,54.30
2023-03-13T17:20:59.827Z,54.80
2023-03-13T17:26:03.126Z,54.70
2023-03-13T17:31:05.668Z,54.40
2023-03-13T17:36:27.205Z,54.50
2023-03-13T17:41:32.118Z,54.30
2023-03-13T17:46:40.558Z,54.60
2023-03-13T17:51:44.553Z,54.60
2023-03-13T17:56:47.414Z,54.90
2023-03-13T18:01:49.670Z,55.10
2023-03-13T18:06:52.000Z,55.10
2023-03-13T18:11:54.328Z,54.90
2023-03-13T18:16:57.529Z,54.70
2023-03-13T18:21:59.713Z,54.40
2023-03-13T18:27:02.048Z,54.10
2023-03-13T18:32:04.361Z,54.00
2023-03-13T18:37:30.496Z,53.70
2023-03-13T18:42:32.799Z,53.50
2023-03-13T18:47:35.034Z,53.40
2023-03-13T18:52:37.407Z,53.40
2023-03-13T18:57:39.721Z,53.20
2023-03-13T19:02:43.680Z,53.20
2023-03-13T19:07:46.679Z,53.20
2023-03-13T19:12:48.936Z,53.10
2023-03-13T19:17:51.949Z,53.10
2023-03-13T19:22:55.963Z,53.00
2023-03-13T19:27:58.606Z,53.50
2023-03-13T19:33:01.010Z,52.90
2023-03-13T19:38:03.233Z,52.90
2023-03-13T19:43:05.499Z,52.90
2023-03-13T19:48:09.817Z,52.80
2023-03-13T19:53:12.030Z,52.80
2023-03-13T19:58:14.226Z,52.90
2023-03-13T20:03:16.471Z,52.80
2023-03-13T20:08:18.662Z,52.80
2023-03-13T20:13:20.922Z,52.50
2023-03-13T20:18:23.180Z,52.50
2023-03-13T20:23:25.492Z,52.40
2023-03-13T20:28:27.701Z,52.40
2023-03-13T20:33:30.574Z,52.40
2023-03-13T20:38:33.081Z,52.40
2023-03-13T20:43:35.986Z,52.40
2023-03-13T20:48:39.657Z,52.40
2023-03-13T20:53:43.073Z,52.40
2023-03-13T20:58:45.347Z,52.40
2023-03-13T21:03:47.652Z,52.40
2023-03-13T21:08:49.919Z,52.50
2023-03-13T21:13:52.194Z,52.50
2023-03-13T21:18:54.452Z,52.60
2023-03-13T21:23:56.754Z,52.40
2023-03-13T21:28:59.069Z,52.30
2023-03-13T21:34:01.280Z,52.40
2023-03-13T21:39:05.489Z,52.40
2023-03-13T21:44:08.693Z,52.40
2023-03-13T21:49:12.242Z,52.30
2023-03-13T21:54:14.456Z,52.40
2023-03-13T21:59:18.072Z,52.50
2023-03-13T22:04:20.344Z,52.40
2023-03-13T22:09:22.642Z,52.30
2023-03-13T22:14:25.933Z,52.30
2023-03-13T22:19:28.255Z,52.60
2023-03-13T22:24:30.445Z,52.40
2023-03-13T22:29:34.363Z,52.50
2023-03-13T22:34:36.738Z,52.60
2023-03-13T22:39:39.623Z,52.60
2023-03-13T22:44:41.787Z,52.70
2023-03-13T22:49:44.346Z,52.70
2023-03-13T22:54:46.676Z,52.70
2023-03-13T22:59:48.913Z,52.80
2023-03-13T23:04:51.393Z,52.80
2023-03-13T23:09:54.032Z,52.80
2023-03-13T23:14:59.553Z,52.70
2023-03-13T23:20:02.058Z,52.70
2023-03-13T23:25:05.693Z,52.60
2023-03-13T23:30:10.152Z,52.70
2023-03-13T23:35:17.675Z,52.90
2023-03-13T23:40:21.523Z,52.90
2023-03-13T23:45:23.753Z,52.90
2023-03-13T23:50:25.971Z,52.90
2023-03-13T23:55:28.205Z,52.80
